createdAt,value
2018-06-12T00:01:39.164Z,49.84
2018-06-12T00:04:08.210Z,49.57
2018-06-12T00:06:37.147Z,50.68
2018-06-12T00:09:07.465Z,49.33
2018-06-12T00:11:36.480Z,49.69
2018-06-12T00:14:05.480Z,49.84
2018-06-12T00:16:34.548Z,50.09
2018-06-12T00:19:03.479Z,50.57
2018-06-12T00:21:32.468Z,49.95
2018-06-12T00:24:01.513Z,49.67
2018-06-12T00:26:30.524Z,50.57
2018-06-12T00:28:59.451Z,49.54
2018-06-12T00:31:28.440Z,50.09
2018-06-12T00:33:57.481Z,50.32
2018-06-12T00:36:26.541Z,50.49
2018-06-12T00:38:55.668Z,51.01
2018-06-12T00:41:24.597Z,50.89
2018-06-12T00:43:53.580Z,49.17
2018-06-12T00:46:22.584Z,49.94
2018-06-12T00:48:51.515Z,49.98
2018-06-12T00:51:20.514Z,49.57
2018-06-12T00:53:49.635Z,50.13
2018-06-12T00:57:33.273Z,49.67
2018-06-12T01:00:02.356Z,49.93
2018-06-12T01:02:31.397Z,50.55
2018-06-12T01:05:00.332Z,49.90
2018-06-12T01:07:29.377Z,51.03
2018-06-12T01:09:58.356Z,51.12
2018-06-12T01:12:27.412Z,51.96
2018-06-12T01:14:56.488Z,51.61
2018-06-12T01:17:26.308Z,52.17
2018-06-12T01:19:55.292Z,53.30
2018-06-12T01:22:24.299Z,54.42
2018-06-12T01:24:53.388Z,54.03
2018-06-12T01:27:22.429Z,54.29
2018-06-12T01:29:51.432Z,54.84
2018-06-12T01:32:20.376Z,54.81
2018-06-12T01:34:49.380Z,55.09
2018-06-12T01:37:18.436Z,55.59
2018-06-12T01:39:47.424Z,56.02
2018-06-12T01:42:16.465Z,54.85
2018-06-12T01:44:45.513Z,54.60
2018-06-12T01:47:14.553Z,54.94
2018-06-12T01:49:43.544Z,56.27
2018-06-12T01:52:12.596Z,55.91
2018-06-12T01:54:41.585Z,56.88
2018-06-12T01:57:10.569Z,57.09
2018-06-12T01:59:39.621Z,57.72
2018-06-12T02:02:08.633Z,57.66
2018-06-12T02:04:37.644Z,57.20
2018-06-12T02:07:06.729Z,57.78
2018-06-12T02:09:35.716Z,59.00
2018-06-12T02:12:04.647Z,59.63
2018-06-12T02:14:33.736Z,59.87
2018-06-12T02:17:02.857Z,60.67
2018-06-12T02:19:31.901Z,61.02
2018-06-12T02:22:01.040Z,60.81
2018-06-12T02:24:29.975Z,60.52
2018-06-12T02:26:58.948Z,60.37
2018-06-12T02:29:27.997Z,61.50
2018-06-12T02:31:57.030Z,60.43
2018-06-12T02:34:26.085Z,61.21
2018-06-12T02:36:55.078Z,60.84
2018-06-12T02:39:24.157Z,59.23
2018-06-12T02:41:53.165Z,59.30
2018-06-12T02:44:22.216Z,58.09
2018-06-12T02:46:51.217Z,58.00
2018-06-12T02:49:20.182Z,58.69
2018-06-12T02:51:49.255Z,58.94
2018-06-12T02:54:18.273Z,58.52
2018-06-12T02:56:47.363Z,57.55
2018-06-12T02:59:16.608Z,57.02
2018-06-12T03:01:45.544Z,56.32
2018-06-12T03:04:14.542Z,55.87
2018-06-12T03:06:43.541Z,55.31
2018-06-12T03:09:12.464Z,55.32
2018-06-12T03:11:41.508Z,57.79
2018-06-12T03:14:10.572Z,57.52
2018-06-12T03:16:39.564Z,56.75
2018-06-12T03:19:08.661Z,58.11
2018-06-12T03:21:37.655Z,57.62
2018-06-12T03:24:06.852Z,58.26
2018-06-12T03:26:35.815Z,57.88
2018-06-12T03:29:04.813Z,58.07
2018-06-12T03:31:33.805Z,57.25
2018-06-12T03:34:03.042Z,57.86
2018-06-12T03:36:32.170Z,56.77
2018-06-12T03:39:01.222Z,56.83
2018-06-12T03:41:30.163Z,58.02
2018-06-12T03:43:59.269Z,58.11
2018-06-12T03:46:28.327Z,55.50
2018-06-12T03:48:57.324Z,56.85
2018-06-12T03:51:26.408Z,56.69
2018-06-12T03:53:55.426Z,55.18
2018-06-12T03:56:24.407Z,53.20
2018-06-12T03:58:53.469Z,53.84
2018-06-12T04:01:22.470Z,51.53
2018-06-12T04:03:51.411Z,50.53
2018-06-12T04:06:20.428Z,50.12
2018-06-12T04:08:49.535Z,50.32
2018-06-12T04:11:18.476Z,48.22
2018-06-12T04:13:47.585Z,49.16
2018-06-12T04:16:16.648Z,48.67
2018-06-12T04:18:45.725Z,48.81
2018-06-12T04:21:14.727Z,48.21
2018-06-12T04:23:43.652Z,48.09
2018-06-12T04:26:12.628Z,47.27
2018-06-12T04:28:41.632Z,42.69
2018-06-12T04:31:10.656Z,38.53
2018-06-12T04:33:39.649Z,37.52
2018-06-12T04:36:08.625Z,38.67
2018-06-12T04:38:37.581Z,39.69
2018-06-12T04:41:06.511Z,41.44
2018-06-12T04:43:35.579Z,42.52
2018-06-12T04:46:04.574Z,42.81
2018-06-12T04:48:33.589Z,42.32
2018-06-12T04:51:02.589Z,41.23
2018-06-12T04:53:31.546Z,42.45
2018-06-12T04:56:00.496Z,42.65
2018-06-12T04:58:29.594Z,42.51
2018-06-12T05:00:58.533Z,43.19
2018-06-12T05:03:27.532Z,44.11
2018-06-12T05:05:56.657Z,45.38
2018-06-12T05:08:25.721Z,44.99
2018-06-12T05:10:54.722Z,46.40
2018-06-12T05:13:23.836Z,46.95
2018-06-12T05:15:52.829Z,46.16
2018-06-12T05:18:21.836Z,44.82
2018-06-12T05:20:50.896Z,43.88
2018-06-12T05:23:19.944Z,41.73
2018-06-12T05:25:48.956Z,42.81
2018-06-12T05:28:18.024Z,40.75
2018-06-12T05:30:47.049Z,41.63
2018-06-12T05:33:16.076Z,40.16
2018-06-12T05:35:45.122Z,41.26
2018-06-12T05:38:14.144Z,39.76
2018-06-12T05:40:43.140Z,36.79
2018-06-12T05:43:12.238Z,35.93
2018-06-12T05:45:41.348Z,34.13
2018-06-12T05:48:10.345Z,35.53
2018-06-12T05:50:39.348Z,35.25
2018-06-12T05:53:08.355Z,34.11
2018-06-12T05:55:37.416Z,33.37
2018-06-12T05:58:06.589Z,34.31
2018-06-12T06:00:35.588Z,34.32
2018-06-12T06:03:04.601Z,34.31
2018-06-12T06:05:33.597Z,33.48
2018-06-12T06:08:02.594Z,32.46
2018-06-12T06:10:31.578Z,30.31
2018-06-12T06:13:00.701Z,30.10
2018-06-12T06:15:29.765Z,28.98
2018-06-12T06:17:59.021Z,26.37
2018-06-12T06:20:28.055Z,25.93
2018-06-12T06:22:57.053Z,25.73
2018-06-12T06:25:26.012Z,28.00
2018-06-12T06:27:55.084Z,27.22
2018-06-12T06:30:24.111Z,26.06
2018-06-12T06:32:53.133Z,24.31
2018-06-12T06:35:22.144Z,24.98
2018-06-12T06:37:51.202Z,25.94
2018-06-12T06:40:20.168Z,25.73
2018-06-12T06:42:49.240Z,26.13
2018-06-12T06:45:18.266Z,25.50
2018-06-12T06:47:47.355Z,23.61
2018-06-12T06:50:16.342Z,23.14
2018-06-12T06:52:45.316Z,23.95
2018-06-12T06:55:14.330Z,22.40
2018-06-12T06:57:43.365Z,23.24
2018-06-12T07:00:12.412Z,22.77
2018-06-12T07:02:55.913Z,24.38
2018-06-12T07:05:25.030Z,24.42
2018-06-12T07:07:54.129Z,23.29
2018-06-12T07:10:23.160Z,23.75
2018-06-12T07:12:52.157Z,22.72
2018-06-12T07:15:21.116Z,22.42
2018-06-12T07:17:50.109Z,22.32
2018-06-12T07:21:32.800Z,25.12
2018-06-12T07:24:01.757Z,22.69
2018-06-12T07:26:30.744Z,22.38
2018-06-12T07:28:59.728Z,23.05
2018-06-12T07:31:28.734Z,23.07
2018-06-12T07:33:57.804Z,22.73
2018-06-12T07:36:26.823Z,23.71
2018-06-12T07:38:55.840Z,22.30
2018-06-12T07:41:24.788Z,22.56
2018-06-12T07:43:53.732Z,22.15
2018-06-12T07:46:22.813Z,22.47
2018-06-12T07:48:51.832Z,22.63
2018-06-12T07:51:20.837Z,25.00
2018-06-12T07:53:49.841Z,25.75
2018-06-12T07:56:18.800Z,25.64
2018-06-12T07:58:47.764Z,26.57
2018-06-12T08:01:16.835Z,26.14
2018-06-12T08:03:45.968Z,26.93
2018-06-12T08:06:15.022Z,27.30
2018-06-12T08:08:44.053Z,28.11
2018-06-12T08:11:13.016Z,29.51
2018-06-12T08:13:42.029Z,29.61
2018-06-12T08:16:11.049Z,28.05
2018-06-12T08:18:40.111Z,29.72
2018-06-12T08:21:09.162Z,30.10
2018-06-12T08:23:38.115Z,30.32
2018-06-12T08:26:07.057Z,28.97
2018-06-12T08:28:36.188Z,30.11
2018-06-12T08:31:05.157Z,30.38
2018-06-12T08:33:34.110Z,30.33
2018-06-12T08:36:03.117Z,31.71
2018-06-12T08:38:32.094Z,30.97
2018-06-12T08:41:01.106Z,31.24
2018-06-12T08:43:30.073Z,30.37
2018-06-12T08:45:59.114Z,29.84
2018-06-12T08:48:28.102Z,29.73
2018-06-12T08:50:57.056Z,31.10
2018-06-12T08:53:26.073Z,31.85
2018-06-12T08:55:55.028Z,29.28
2018-06-12T08:58:24.033Z,33.00
2018-06-12T09:00:53.011Z,31.57
2018-06-12T09:03:22.042Z,31.30
2018-06-12T09:05:51.185Z,29.55
2018-06-12T09:08:20.216Z,31.14
2018-06-12T09:10:49.233Z,32.35
2018-06-12T09:13:18.204Z,32.72
2018-06-12T09:15:47.221Z,31.49
2018-06-12T09:18:16.280Z,31.48
2018-06-12T09:20:45.301Z,30.93
2018-06-12T09:23:14.309Z,29.63
2018-06-12T09:25:43.338Z,29.64
2018-06-12T09:28:12.367Z,30.23
2018-06-12T09:30:41.378Z,29.15
2018-06-12T09:33:10.328Z,29.27
2018-06-12T09:35:39.269Z,28.84
2018-06-12T09:38:08.289Z,30.48
2018-06-12T09:40:37.288Z,29.72
2018-06-12T09:43:06.448Z,29.06
2018-06-12T09:45:35.392Z,28.77
2018-06-12T09:48:04.457Z,28.11
2018-06-12T09:50:33.478Z,27.67
2018-06-12T09:53:02.432Z,27.44
2018-06-12T09:55:31.498Z,26.83
2018-06-12T09:58:00.456Z,26.56
2018-06-12T10:00:34.488Z,26.06
2018-06-12T10:03:03.561Z,25.29
2018-06-12T10:05:32.537Z,25.87
2018-06-12T10:08:01.568Z,26.57
2018-06-12T10:10:30.582Z,25.77
2018-06-12T10:12:59.660Z,25.46
2018-06-12T10:15:28.685Z,25.76
2018-06-12T10:17:57.649Z,25.84
2018-06-12T10:20:26.610Z,25.70
2018-06-12T10:22:55.569Z,26.74
2018-06-12T10:25:24.636Z,24.72
2018-06-12T10:27:53.669Z,26.11
2018-06-12T10:30:22.705Z,26.90
2018-06-12T10:32:51.714Z,25.76
2018-06-12T10:35:20.736Z,26.42
2018-06-12T10:37:49.812Z,25.63
2018-06-12T10:40:18.777Z,26.33
2018-06-12T10:42:47.773Z,26.29
2018-06-12T10:45:16.781Z,25.74
2018-06-12T10:47:45.827Z,25.51
2018-06-12T10:50:14.889Z,25.17
2018-06-12T10:52:43.887Z,22.93
2018-06-12T10:55:12.930Z,25.10
2018-06-12T10:57:41.948Z,23.99
2018-06-12T11:00:10.951Z,23.64
2018-06-12T11:02:40.023Z,23.57
2018-06-12T11:05:09.109Z,22.53
2018-06-12T11:07:38.100Z,23.54
2018-06-12T11:10:07.073Z,23.24
2018-06-12T11:12:36.126Z,23.21
2018-06-12T11:15:05.159Z,22.22
2018-06-12T11:17:34.241Z,23.70
2018-06-12T11:20:03.288Z,24.26
2018-06-12T11:22:32.298Z,24.94
2018-06-12T11:25:01.374Z,23.90
2018-06-12T11:27:30.517Z,24.12
2018-06-12T11:29:59.472Z,23.19
2018-06-12T11:32:28.445Z,23.13
2018-06-12T11:34:57.456Z,23.86
2018-06-12T11:37:26.479Z,23.92
2018-06-12T11:39:55.496Z,22.97
2018-06-12T11:42:24.517Z,22.83
2018-06-12T11:44:53.481Z,23.31
2018-06-12T11:47:22.472Z,21.94
2018-06-12T11:49:51.538Z,24.17
2018-06-12T11:52:20.634Z,23.68
2018-06-12T11:54:49.580Z,22.44
2018-06-12T11:57:18.540Z,20.75
2018-06-12T11:59:47.557Z,21.75
2018-06-12T12:02:16.609Z,19.85
2018-06-12T12:04:45.784Z,19.71
2018-06-12T12:07:14.808Z,18.53
2018-06-12T12:09:43.787Z,18.79
2018-06-12T12:12:12.787Z,20.27
2018-06-12T12:14:41.804Z,18.76
2018-06-12T12:17:10.885Z,19.34
2018-06-12T12:19:39.833Z,19.82
2018-06-12T12:22:08.844Z,18.33
2018-06-12T12:24:37.829Z,18.24
2018-06-12T12:27:06.807Z,18.96
2018-06-12T12:29:35.887Z,17.64
2018-06-12T12:32:05.022Z,17.72
2018-06-12T12:34:33.981Z,17.47
2018-06-12T12:37:02.936Z,17.21
2018-06-12T12:39:32.007Z,16.71
2018-06-12T12:42:01.026Z,17.77
2018-06-12T12:44:30.027Z,17.00
2018-06-12T12:46:59.025Z,17.87
2018-06-12T12:49:28.040Z,19.25
2018-06-12T12:51:56.992Z,18.80
2018-06-12T12:54:25.985Z,18.16
2018-06-12T12:56:55.052Z,17.66
2018-06-12T12:59:24.014Z,17.89
2018-06-12T13:01:52.965Z,18.44
2018-06-12T13:04:21.992Z,17.93
2018-06-12T13:06:51.008Z,20.26
2018-06-12T13:09:20.027Z,19.83
2018-06-12T13:11:48.968Z,19.15
2018-06-12T13:14:17.916Z,21.15
2018-06-12T13:16:46.928Z,22.12
2018-06-12T13:19:15.977Z,23.49
2018-06-12T13:21:45.044Z,24.17
2018-06-12T13:24:13.980Z,25.21
2018-06-12T13:26:43.135Z,25.00
2018-06-12T13:29:11.988Z,26.17
2018-06-12T13:31:41.037Z,26.96
2018-06-12T13:34:10.052Z,27.03
2018-06-12T13:36:39.080Z,25.81
2018-06-12T13:39:08.141Z,25.73
2018-06-12T13:41:37.172Z,24.65
2018-06-12T13:44:06.324Z,23.11
2018-06-12T13:46:35.396Z,22.66
2018-06-12T13:49:04.368Z,23.13
2018-06-12T13:51:33.351Z,22.94
2018-06-12T13:54:02.304Z,23.86
2018-06-12T13:56:31.326Z,25.04
2018-06-12T13:59:00.269Z,26.44
2018-06-12T14:01:29.319Z,27.72
2018-06-12T14:03:58.351Z,28.21
2018-06-12T14:06:27.354Z,28.27
2018-06-12T14:08:56.470Z,31.25
2018-06-12T14:11:25.472Z,31.16
2018-06-12T14:13:54.476Z,31.91
2018-06-12T14:16:23.435Z,31.96
2018-06-12T14:18:52.380Z,32.75
2018-06-12T14:21:21.388Z,33.18
2018-06-12T14:23:50.389Z,33.79
2018-06-12T14:26:19.421Z,34.45
2018-06-12T14:28:48.378Z,35.78
2018-06-12T14:31:17.332Z,34.57
2018-06-12T14:33:46.335Z,34.75
2018-06-12T14:36:15.281Z,33.54
2018-06-12T14:38:44.296Z,34.13
2018-06-12T14:41:13.324Z,35.67
2018-06-12T14:43:42.337Z,36.05
2018-06-12T14:46:11.345Z,38.10
2018-06-12T14:48:40.292Z,36.46
2018-06-12T14:51:09.262Z,35.71
2018-06-12T14:53:38.280Z,36.53
2018-06-12T14:56:07.401Z,37.44
2018-06-12T14:58:36.496Z,35.39
2018-06-12T15:01:05.593Z,36.65
2018-06-12T15:03:34.556Z,35.47
2018-06-12T15:06:03.662Z,35.16
2018-06-12T15:08:32.686Z,36.52
2018-06-12T15:11:01.753Z,36.47
2018-06-12T15:13:30.814Z,36.16
2018-06-12T15:15:59.820Z,37.05
2018-06-12T15:18:28.909Z,37.37
2018-06-12T15:20:57.913Z,36.66
2018-06-12T15:23:26.969Z,35.90
2018-06-12T15:25:56.022Z,36.67
2018-06-12T15:28:25.093Z,37.00
2018-06-12T15:30:54.078Z,37.18
2018-06-12T15:33:24.045Z,37.09
2018-06-12T15:35:53.101Z,38.09
2018-06-12T15:38:22.078Z,38.05
2018-06-12T15:40:51.048Z,38.14
2018-06-12T15:43:20.120Z,38.63
2018-06-12T15:45:49.191Z,37.20
2018-06-12T15:48:18.273Z,37.15
2018-06-12T15:50:47.226Z,37.42
2018-06-12T15:53:16.168Z,37.96
2018-06-12T15:55:45.181Z,37.42
2018-06-12T15:58:14.148Z,38.39
2018-06-12T16:00:43.329Z,39.07
2018-06-12T16:03:12.321Z,38.59
2018-06-12T16:05:41.272Z,38.69
2018-06-12T16:08:10.288Z,40.24
2018-06-12T16:10:39.321Z,39.66
2018-06-12T16:13:08.382Z,38.70
2018-06-12T16:15:37.352Z,40.89
2018-06-12T16:18:06.377Z,39.43
2018-06-12T16:20:35.389Z,40.52
2018-06-12T16:23:19.186Z,40.75
2018-06-12T16:25:48.245Z,42.05
2018-06-12T16:28:17.329Z,41.66
2018-06-12T16:30:46.430Z,42.14
2018-06-12T16:33:15.399Z,42.77
2018-06-12T16:35:44.404Z,42.43
2018-06-12T16:38:13.570Z,43.59
2018-06-12T16:40:42.523Z,42.93
2018-06-12T16:43:11.500Z,43.25
2018-06-12T16:45:40.484Z,43.27
2018-06-12T16:48:09.501Z,44.50
2018-06-12T16:50:38.522Z,44.35
2018-06-12T16:53:07.608Z,45.00
2018-06-12T16:55:36.556Z,44.50
2018-06-12T16:58:05.704Z,46.03
2018-06-12T17:00:34.701Z,45.31
2018-06-12T17:03:04.078Z,45.86
2018-06-12T17:05:33.088Z,46.07
2018-06-12T17:08:02.117Z,47.48
2018-06-12T17:10:31.134Z,47.17
2018-06-12T17:13:00.082Z,47.34
2018-06-12T17:15:29.097Z,47.59
2018-06-12T17:17:58.100Z,47.63
2018-06-12T17:20:27.097Z,48.47
2018-06-12T17:22:56.108Z,48.58
2018-06-12T17:25:25.097Z,49.07
2018-06-12T17:27:54.113Z,49.49
2018-06-12T17:30:23.121Z,50.05
2018-06-12T17:32:52.145Z,49.47
2018-06-12T17:35:21.166Z,49.48
2018-06-12T17:37:50.237Z,50.43
2018-06-12T17:40:19.346Z,50.67
2018-06-12T17:42:48.381Z,51.28
2018-06-12T17:45:20.076Z,51.01
2018-06-12T17:47:49.117Z,50.69
2018-06-12T17:50:22.284Z,50.56
2018-06-12T17:52:51.364Z,50.38
2018-06-12T17:55:20.306Z,49.64
2018-06-12T17:57:49.270Z,48.56
2018-06-12T18:00:18.272Z,49.37
2018-06-12T18:02:47.237Z,48.75
2018-06-12T18:05:16.247Z,48.92
2018-06-12T18:07:45.252Z,48.68
2018-06-12T18:10:14.214Z,48.54
2018-06-12T18:12:43.170Z,47.47
2018-06-12T18:15:12.700Z,48.66
2018-06-12T18:17:41.829Z,47.70
2018-06-12T18:20:10.790Z,47.45
2018-06-12T18:22:39.798Z,47.58
2018-06-12T18:25:08.761Z,47.40
2018-06-12T18:27:37.805Z,47.89
2018-06-12T18:30:06.911Z,48.40
2018-06-12T18:32:35.908Z,47.60
2018-06-12T18:35:04.884Z,47.46
2018-06-12T18:37:33.934Z,46.97
2018-06-12T18:40:02.938Z,46.90
2018-06-12T18:42:31.996Z,47.50
2018-06-12T18:45:00.947Z,47.00
2018-06-12T18:47:29.957Z,46.92
2018-06-12T18:49:58.986Z,47.38
2018-06-12T18:52:28.033Z,47.38
2018-06-12T18:54:57.037Z,47.57
2018-06-12T18:57:26.062Z,47.90
2018-06-12T18:59:55.080Z,47.01
2018-06-12T19:02:24.124Z,47.14
2018-06-12T19:04:53.084Z,48.12
2018-06-12T19:07:22.206Z,47.66
2018-06-12T19:09:51.220Z,47.69
2018-06-12T19:12:20.189Z,48.07
2018-06-12T19:14:49.189Z,48.16
2018-06-12T19:17:18.226Z,47.85
2018-06-12T19:19:47.318Z,48.87
2018-06-12T19:22:16.298Z,47.74
2018-06-12T19:24:45.356Z,47.80
2018-06-12T19:27:14.442Z,48.75
2018-06-12T19:29:43.456Z,48.86
2018-06-12T19:32:17.553Z,48.94
2018-06-12T19:34:46.569Z,48.61
2018-06-12T19:37:15.594Z,48.78
2018-06-12T19:39:44.592Z,48.81
2018-06-12T19:42:13.620Z,48.35
2018-06-12T19:44:42.644Z,48.52
2018-06-12T19:47:11.657Z,48.81
2018-06-12T19:49:40.685Z,48.36
2018-06-12T19:52:09.692Z,48.79
2018-06-12T19:54:38.758Z,49.52
2018-06-12T19:57:07.681Z,48.67
2018-06-12T19:59:36.747Z,49.17
2018-06-12T20:02:05.836Z,49.53
2018-06-12T20:04:34.784Z,49.89
2018-06-12T20:07:03.831Z,50.21
2018-06-12T20:09:32.772Z,50.15
2018-06-12T20:12:01.764Z,50.17
2018-06-12T20:14:30.764Z,49.38
2018-06-12T20:16:59.747Z,50.77
2018-06-12T20:19:28.709Z,49.50
2018-06-12T20:21:57.701Z,51.07
2018-06-12T20:24:26.698Z,51.08
2018-06-12T20:26:55.631Z,50.41
2018-06-12T20:29:24.564Z,51.45
2018-06-12T20:31:53.593Z,51.56
2018-06-12T20:34:22.542Z,52.00
2018-06-12T20:36:51.537Z,52.45
2018-06-12T20:39:20.575Z,52.17
2018-06-12T20:41:49.581Z,52.50
2018-06-12T20:44:18.633Z,51.70
2018-06-12T20:46:47.714Z,52.25
2018-06-12T20:49:16.658Z,52.28
2018-06-12T20:51:45.668Z,51.49
2018-06-12T20:54:14.612Z,51.23
2018-06-12T20:56:43.891Z,51.14
2018-06-12T20:59:12.877Z,52.12
2018-06-12T21:01:41.917Z,52.22
2018-06-12T21:04:10.915Z,52.17
2018-06-12T21:06:39.888Z,51.88
2018-06-12T21:09:08.935Z,51.71
2018-06-12T21:11:37.930Z,52.90
2018-06-12T21:14:06.868Z,53.13
2018-06-12T21:16:35.937Z,53.10
2018-06-12T21:19:04.880Z,52.97
2018-06-12T21:21:33.888Z,52.57
2018-06-12T21:24:02.872Z,54.32
2018-06-12T21:26:31.810Z,53.26
2018-06-12T21:29:00.815Z,53.70
2018-06-12T21:31:29.766Z,53.99
2018-06-12T21:33:58.932Z,54.31
2018-06-12T21:36:27.899Z,55.02
2018-06-12T21:38:56.860Z,54.10
2018-06-12T21:41:25.824Z,55.07
2018-06-12T21:43:54.974Z,56.49
2018-06-12T21:46:24.044Z,56.12
2018-06-12T21:48:53.121Z,56.47
2018-06-12T21:51:22.141Z,56.66
2018-06-12T21:53:51.165Z,55.93
2018-06-12T21:56:20.197Z,55.96
2018-06-12T21:58:49.207Z,55.97
2018-06-12T22:01:18.172Z,56.59
2018-06-12T22:03:47.141Z,56.15
2018-06-12T22:06:16.108Z,56.13
2018-06-12T22:08:45.065Z,55.98
2018-06-12T22:11:14.064Z,55.54
2018-06-12T22:13:43.037Z,56.03
2018-06-12T22:16:12.852Z,55.54
2018-06-12T22:18:41.848Z,54.66
2018-06-12T22:21:10.801Z,55.83
2018-06-12T22:23:39.804Z,55.08
2018-06-12T22:26:08.760Z,55.50
2018-06-12T22:28:37.748Z,54.94
2018-06-12T22:31:07.012Z,56.96
2018-06-12T22:33:36.036Z,58.11
2018-06-12T22:36:05.440Z,57.74
2018-06-12T22:38:34.419Z,57.46
2018-06-12T22:41:03.371Z,57.91
2018-06-12T22:43:32.339Z,58.67
2018-06-12T22:46:01.384Z,59.19
2018-06-12T22:48:30.383Z,60.03
2018-06-12T22:50:59.335Z,59.85
2018-06-12T22:53:28.356Z,60.79
2018-06-12T22:55:57.312Z,59.33
2018-06-12T22:58:26.280Z,60.35
2018-06-12T23:00:55.281Z,60.18
2018-06-12T23:03:24.233Z,60.29
2018-06-12T23:05:53.200Z,59.89
2018-06-12T23:08:22.267Z,60.47
2018-06-12T23:10:51.315Z,60.84
2018-06-12T23:13:20.392Z,60.09
2018-06-12T23:15:49.376Z,60.51
2018-06-12T23:18:18.337Z,60.61
2018-06-12T23:20:58.350Z,59.47
2018-06-12T23:23:27.437Z,61.48
2018-06-12T23:25:56.445Z,61.36
2018-06-12T23:28:25.400Z,61.57
2018-06-12T23:30:54.469Z,61.51
2018-06-12T23:33:23.416Z,62.69
2018-06-12T23:35:52.368Z,60.92
2018-06-12T23:38:21.376Z,61.85
2018-06-12T23:40:50.326Z,61.04
2018-06-12T23:43:19.397Z,59.56
2018-06-12T23:45:48.408Z,59.97
2018-06-12T23:48:17.428Z,59.47
2018-06-12T23:50:46.444Z,59.57
2018-06-12T23:53:15.450Z,60.14
2018-06-12T23:55:44.504Z,60.15
2018-06-12T23:58:13.452Z,60.38
